sensor_id;sensor_type;location;lat;lon;timestamp;temperature;humidity
19483;DHT22;9882;51.166;6.992;2023-11-21T00:00:16;10.80;99.90
19483;DHT22;9882;51.166;6.992;2023-11-21T00:02:46;10.80;99.90
19483;DHT22;9882;51.166;6.992;2023-11-21T00:05:15;10.80;99.90
19483;DHT22;9882;51.166;6.992;2023-11-21T00:07:44;10.70;99.90
19483;DHT22;9882;51.166;6.992;2023-11-21T00:10:13;10.70;99.90
19483;DHT22;9882;51.166;6.992;2023-11-21T00:12:43;10.70;99.90
19483;DHT22;9882;51.166;6.992;2023-11-21T00:15:12;10.70;99.90
19483;DHT22;9882;51.166;6.992;2023-11-21T00:17:46;10.70;99.90
19483;DHT22;9882;51.166;6.992;2023-11-21T00:20:15;10.60;99.90
19483;DHT22;9882;51.166;6.992;2023-11-21T00:22:44;10.60;99.90
19483;DHT22;9882;51.166;6.992;2023-11-21T00:25:14;10.60;99.90
19483;DHT22;9882;51.166;6.992;2023-11-21T00:27:44;10.60;99.90
19483;DHT22;9882;51.166;6.992;2023-11-21T00:30:14;10.60;99.90
19483;DHT22;9882;51.166;6.992;2023-11-21T00:32:43;10.60;99.90
19483;DHT22;9882;51.166;6.992;2023-11-21T00:35:14;10.60;99.90
19483;DHT22;9882;51.166;6.992;2023-11-21T00:37:43;10.60;99.90
19483;DHT22;9882;51.166;6.992;2023-11-21T00:40:12;10.60;99.90
19483;DHT22;9882;51.166;6.992;2023-11-21T00:42:42;10.60;99.90
19483;DHT22;9882;51.166;6.992;2023-11-21T00:45:12;10.50;99.90
19483;DHT22;9882;51.166;6.992;2023-11-21T00:47:41;10.50;99.90
19483;DHT22;9882;51.166;6.992;2023-11-21T00:50:10;10.60;99.90
19483;DHT22;9882;51.166;6.992;2023-11-21T00:52:40;10.50;99.90
19483;DHT22;9882;51.166;6.992;2023-11-21T00:55:09;10.50;99.90
19483;DHT22;9882;51.166;6.992;2023-11-21T00:57:39;10.50;99.90
19483;DHT22;9882;51.166;6.992;2023-11-21T01:00:09;10.50;99.90
19483;DHT22;9882;51.166;6.992;2023-11-21T01:02:41;10.50;99.90
19483;DHT22;9882;51.166;6.992;2023-11-21T01:05:11;10.50;99.90
19483;DHT22;9882;51.166;6.992;2023-11-21T01:07:41;10.50;99.90
19483;DHT22;9882;51.166;6.992;2023-11-21T01:10:11;10.50;99.90
19483;DHT22;9882;51.166;6.992;2023-11-21T01:12:40;10.40;99.90
19483;DHT22;9882;51.166;6.992;2023-11-21T01:15:09;10.40;99.90
19483;DHT22;9882;51.166;6.992;2023-11-21T01:17:39;10.40;99.90
19483;DHT22;9882;51.166;6.992;2023-11-21T01:20:09;10.40;99.90
19483;DHT22;9882;51.166;6.992;2023-11-21T01:22:41;10.40;99.90
19483;DHT22;9882;51.166;6.992;2023-11-21T01:25:11;10.40;99.90
19483;DHT22;9882;51.166;6.992;2023-11-21T01:27:42;10.40;99.90
19483;DHT22;9882;51.166;6.992;2023-11-21T01:30:12;10.40;99.90
19483;DHT22;9882;51.166;6.992;2023-11-21T01:32:40;10.30;99.90
19483;DHT22;9882;51.166;6.992;2023-11-21T01:35:10;10.30;99.90
19483;DHT22;9882;51.166;6.992;2023-11-21T01:37:40;10.30;99.90
19483;DHT22;9882;51.166;6.992;2023-11-21T01:40:10;10.30;99.90
19483;DHT22;9882;51.166;6.992;2023-11-21T01:42:41;10.30;99.90
19483;DHT22;9882;51.166;6.992;2023-11-21T01:45:14;10.30;99.90
19483;DHT22;9882;51.166;6.992;2023-11-21T01:47:44;10.30;99.90
19483;DHT22;9882;51.166;6.992;2023-11-21T01:50:16;10.30;99.90
19483;DHT22;9882;51.166;6.992;2023-11-21T01:52:46;10.30;99.90
19483;DHT22;9882;51.166;6.992;2023-11-21T01:55:17;10.30;99.90
19483;DHT22;9882;51.166;6.992;2023-11-21T01:57:54;10.20;99.90
19483;DHT22;9882;51.166;6.992;2023-11-21T02:00:23;10.30;99.90
19483;DHT22;9882;51.166;6.992;2023-11-21T02:02:53;10.30;99.90
19483;DHT22;9882;51.166;6.992;2023-11-21T02:05:22;10.20;99.90
19483;DHT22;9882;51.166;6.992;2023-11-21T02:07:53;10.20;99.90
19483;DHT22;9882;51.166;6.992;2023-11-21T02:10:23;10.20;99.90
19483;DHT22;9882;51.166;6.992;2023-11-21T02:12:52;10.20;99.90
19483;DHT22;9882;51.166;6.992;2023-11-21T02:15:21;10.30;99.90
19483;DHT22;9882;51.166;6.992;2023-11-21T02:17:54;10.20;99.90
19483;DHT22;9882;51.166;6.992;2023-11-21T02:20:26;10.20;99.90
19483;DHT22;9882;51.166;6.992;2023-11-21T02:22:58;10.20;99.90
19483;DHT22;9882;51.166;6.992;2023-11-21T02:25:29;10.20;99.90
19483;DHT22;9882;51.166;6.992;2023-11-21T02:27:59;10.20;99.90
19483;DHT22;9882;51.166;6.992;2023-11-21T02:30:30;10.20;99.90
19483;DHT22;9882;51.166;6.992;2023-11-21T02:33:00;10.20;99.90
19483;DHT22;9882;51.166;6.992;2023-11-21T02:35:29;10.20;99.90
19483;DHT22;9882;51.166;6.992;2023-11-21T02:38:00;10.10;99.90
19483;DHT22;9882;51.166;6.992;2023-11-21T02:40:29;10.10;99.90
19483;DHT22;9882;51.166;6.992;2023-11-21T02:43:03;10.10;99.90
19483;DHT22;9882;51.166;6.992;2023-11-21T02:45:33;10.10;99.90
19483;DHT22;9882;51.166;6.992;2023-11-21T02:48:02;10.10;99.90
19483;DHT22;9882;51.166;6.992;2023-11-21T02:50:32;10.10;99.90
19483;DHT22;9882;51.166;6.992;2023-11-21T02:53:02;10.10;99.90
19483;DHT22;9882;51.166;6.992;2023-11-21T02:55:33;10.10;99.90
19483;DHT22;9882;51.166;6.992;2023-11-21T02:58:03;10.10;99.90
19483;DHT22;9882;51.166;6.992;2023-11-21T03:00:33;10.10;99.90
19483;DHT22;9882;51.166;6.992;2023-11-21T03:03:02;10.10;99.90
19483;DHT22;9882;51.166;6.992;2023-11-21T03:05:31;10.10;99.90
19483;DHT22;9882;51.166;6.992;2023-11-21T03:08:04;10.00;99.90
19483;DHT22;9882;51.166;6.992;2023-11-21T03:10:34;10.10;99.90
19483;DHT22;9882;51.166;6.992;2023-11-21T03:13:03;10.10;99.90
19483;DHT22;9882;51.166;6.992;2023-11-21T03:15:34;10.10;99.90
19483;DHT22;9882;51.166;6.992;2023-11-21T03:18:04;10.10;99.90
19483;DHT22;9882;51.166;6.992;2023-11-21T03:20:33;10.10;99.90
19483;DHT22;9882;51.166;6.992;2023-11-21T03:23:05;10.10;99.90
19483;DHT22;9882;51.166;6.992;2023-11-21T03:25:34;10.10;99.90
19483;DHT22;9882;51.166;6.992;2023-11-21T03:28:03;10.10;99.90
19483;DHT22;9882;51.166;6.992;2023-11-21T03:30:32;10.10;99.90
19483;DHT22;9882;51.166;6.992;2023-11-21T03:33:01;10.10;99.90
19483;DHT22;9882;51.166;6.992;2023-11-21T03:35:30;10.20;99.90
19483;DHT22;9882;51.166;6.992;2023-11-21T03:38:00;10.20;99.90
19483;DHT22;9882;51.166;6.992;2023-11-21T03:40:31;10.20;99.90
19483;DHT22;9882;51.166;6.992;2023-11-21T03:43:01;10.20;99.90
19483;DHT22;9882;51.166;6.992;2023-11-21T03:45:33;10.20;99.90
19483;DHT22;9882;51.166;6.992;2023-11-21T03:48:02;10.20;99.90
19483;DHT22;9882;51.166;6.992;2023-11-21T03:50:31;10.20;99.90
19483;DHT22;9882;51.166;6.992;2023-11-21T03:53:01;10.20;99.90
19483;DHT22;9882;51.166;6.992;2023-11-21T03:55:31;10.20;99.90
19483;DHT22;9882;51.166;6.992;2023-11-21T03:58:00;10.20;99.90
19483;DHT22;9882;51.166;6.992;2023-11-21T04:00:30;10.20;99.90
19483;DHT22;9882;51.166;6.992;2023-11-21T04:02:58;10.20;99.90
19483;DHT22;9882;51.166;6.992;2023-11-21T04:05:28;10.20;99.90
19483;DHT22;9882;51.166;6.992;2023-11-21T04:07:56;10.20;99.90
19483;DHT22;9882;51.166;6.992;2023-11-21T04:10:25;10.20;99.90
19483;DHT22;9882;51.166;6.992;2023-11-21T04:12:56;10.20;99.90
19483;DHT22;9882;51.166;6.992;2023-11-21T04:15:24;10.10;99.90
19483;DHT22;9882;51.166;6.992;2023-11-21T04:17:53;10.20;99.90
19483;DHT22;9882;51.166;6.992;2023-11-21T04:20:24;10.20;99.90
19483;DHT22;9882;51.166;6.992;2023-11-21T04:22:53;10.20;99.90
19483;DHT22;9882;51.166;6.992;2023-11-21T04:25:25;10.20;99.90
19483;DHT22;9882;51.166;6.992;2023-11-21T04:27:55;10.10;99.90
19483;DHT22;9882;51.166;6.992;2023-11-21T04:30:24;10.10;99.90
19483;DHT22;9882;51.166;6.992;2023-11-21T04:32:56;10.20;99.90
19483;DHT22;9882;51.166;6.992;2023-11-21T04:35:26;10.20;99.90
19483;DHT22;9882;51.166;6.992;2023-11-21T04:37:54;10.10;99.90
19483;DHT22;9882;51.166;6.992;2023-11-21T04:40:25;10.10;99.90
19483;DHT22;9882;51.166;6.992;2023-11-21T04:42:56;10.10;99.90
19483;DHT22;9882;51.166;6.992;2023-11-21T04:45:25;10.10;99.90
19483;DHT22;9882;51.166;6.992;2023-11-21T04:47:54;10.10;99.90
19483;DHT22;9882;51.166;6.992;2023-11-21T04:50:23;10.10;99.90
19483;DHT22;9882;51.166;6.992;2023-11-21T04:52:54;10.10;99.90
19483;DHT22;9882;51.166;6.992;2023-11-21T04:55:23;10.10;99.90
19483;DHT22;9882;51.166;6.992;2023-11-21T04:57:56;10.10;99.90
19483;DHT22;9882;51.166;6.992;2023-11-21T05:00:25;10.00;99.90
19483;DHT22;9882;51.166;6.992;2023-11-21T05:02:54;10.10;99.90
19483;DHT22;9882;51.166;6.992;2023-11-21T05:05:23;10.00;99.90
19483;DHT22;9882;51.166;6.992;2023-11-21T05:07:54;10.10;99.90
19483;DHT22;9882;51.166;6.992;2023-11-21T05:10:23;10.10;99.90
19483;DHT22;9882;51.166;6.992;2023-11-21T05:12:52;10.10;99.90
19483;DHT22;9882;51.166;6.992;2023-11-21T05:15:22;10.10;99.90
19483;DHT22;9882;51.166;6.992;2023-11-21T05:17:52;10.10;99.90
19483;DHT22;9882;51.166;6.992;2023-11-21T05:20:21;10.00;99.90
19483;DHT22;9882;51.166;6.992;2023-11-21T05:22:51;10.00;99.90
19483;DHT22;9882;51.166;6.992;2023-11-21T05:25:20;10.00;99.90
19483;DHT22;9882;51.166;6.992;2023-11-21T05:27:49;9.90;99.90
19483;DHT22;9882;51.166;6.992;2023-11-21T05:30:17;10.00;99.90
19483;DHT22;9882;51.166;6.992;2023-11-21T05:32:48;10.00;99.90
19483;DHT22;9882;51.166;6.992;2023-11-21T05:35:17;10.00;99.90
19483;DHT22;9882;51.166;6.992;2023-11-21T05:37:46;10.00;99.90
19483;DHT22;9882;51.166;6.992;2023-11-21T05:40:18;10.00;99.90
19483;DHT22;9882;51.166;6.992;2023-11-21T05:42:50;10.00;99.90
19483;DHT22;9882;51.166;6.992;2023-11-21T05:45:19;10.00;99.90
19483;DHT22;9882;51.166;6.992;2023-11-21T05:47:50;10.00;99.90
19483;DHT22;9882;51.166;6.992;2023-11-21T05:50:18;9.90;99.90
19483;DHT22;9882;51.166;6.992;2023-11-21T05:52:47;9.90;99.90
19483;DHT22;9882;51.166;6.992;2023-11-21T05:55:16;10.00;99.90
19483;DHT22;9882;51.166;6.992;2023-11-21T05:57:46;9.90;99.90
19483;DHT22;9882;51.166;6.992;2023-11-21T06:00:15;9.90;99.90
19483;DHT22;9882;51.166;6.992;2023-11-21T06:02:48;9.90;99.90
19483;DHT22;9882;51.166;6.992;2023-11-21T06:05:20;9.90;99.90
19483;DHT22;9882;51.166;6.992;2023-11-21T06:07:50;9.90;99.90
19483;DHT22;9882;51.166;6.992;2023-11-21T06:10:20;9.80;99.90
19483;DHT22;9882;51.166;6.992;2023-11-21T06:12:51;9.80;99.90
19483;DHT22;9882;51.166;6.992;2023-11-21T06:15:20;9.80;99.90
19483;DHT22;9882;51.166;6.992;2023-11-21T06:17:51;9.80;99.90
19483;DHT22;9882;51.166;6.992;2023-11-21T06:20:22;9.80;99.90
19483;DHT22;9882;51.166;6.992;2023-11-21T06:22:53;9.80;99.90
19483;DHT22;9882;51.166;6.992;2023-11-21T06:25:22;9.80;99.90
19483;DHT22;9882;51.166;6.992;2023-11-21T06:27:51;9.80;99.90
19483;DHT22;9882;51.166;6.992;2023-11-21T06:30:21;9.80;99.90
19483;DHT22;9882;51.166;6.992;2023-11-21T06:32:50;9.80;99.90
19483;DHT22;9882;51.166;6.992;2023-11-21T06:35:21;9.80;99.90
19483;DHT22;9882;51.166;6.992;2023-11-21T06:37:50;9.80;99.90
19483;DHT22;9882;51.166;6.992;2023-11-21T06:40:19;9.80;99.90
19483;DHT22;9882;51.166;6.992;2023-11-21T06:42:49;9.80;99.90
19483;DHT22;9882;51.166;6.992;2023-11-21T06:45:18;9.80;99.90
19483;DHT22;9882;51.166;6.992;2023-11-21T06:47:49;9.70;99.90
19483;DHT22;9882;51.166;6.992;2023-11-21T06:50:18;9.80;99.90
19483;DHT22;9882;51.166;6.992;2023-11-21T06:52:49;9.80;99.90
19483;DHT22;9882;51.166;6.992;2023-11-21T06:55:18;9.80;99.90
19483;DHT22;9882;51.166;6.992;2023-11-21T06:57:47;9.70;99.90
19483;DHT22;9882;51.166;6.992;2023-11-21T07:00:17;9.70;99.90
19483;DHT22;9882;51.166;6.992;2023-11-21T07:02:46;9.80;99.90
19483;DHT22;9882;51.166;6.992;2023-11-21T07:05:15;9.80;99.90
19483;DHT22;9882;51.166;6.992;2023-11-21T07:07:49;9.80;99.90
19483;DHT22;9882;51.166;6.992;2023-11-21T07:10:21;9.80;99.90
19483;DHT22;9882;51.166;6.992;2023-11-21T07:12:51;9.80;99.90
19483;DHT22;9882;51.166;6.992;2023-11-21T07:15:20;9.80;99.90
19483;DHT22;9882;51.166;6.992;2023-11-21T07:17:50;9.80;99.90
19483;DHT22;9882;51.166;6.992;2023-11-21T07:20:18;9.80;99.90
19483;DHT22;9882;51.166;6.992;2023-11-21T07:22:50;9.80;99.90
19483;DHT22;9882;51.166;6.992;2023-11-21T07:25:19;9.80;99.90
19483;DHT22;9882;51.166;6.992;2023-11-21T07:27:49;9.80;99.90
19483;DHT22;9882;51.166;6.992;2023-11-21T07:30:18;9.80;99.90
19483;DHT22;9882;51.166;6.992;2023-11-21T07:32:47;9.80;99.90
19483;DHT22;9882;51.166;6.992;2023-11-21T07:35:16;9.80;99.90
19483;DHT22;9882;51.166;6.992;2023-11-21T07:37:45;9.80;99.90
19483;DHT22;9882;51.166;6.992;2023-11-21T07:40:16;9.80;99.90
19483;DHT22;9882;51.166;6.992;2023-11-21T07:42:45;9.90;99.90
19483;DHT22;9882;51.166;6.992;2023-11-21T07:45:14;9.80;99.90
19483;DHT22;9882;51.166;6.992;2023-11-21T07:47:43;9.80;99.90
19483;DHT22;9882;51.166;6.992;2023-11-21T07:50:11;9.90;99.90
19483;DHT22;9882;51.166;6.992;2023-11-21T07:52:41;9.80;99.90
19483;DHT22;9882;51.166;6.992;2023-11-21T07:55:09;9.80;99.90
19483;DHT22;9882;51.166;6.992;2023-11-21T07:57:40;9.90;99.90
19483;DHT22;9882;51.166;6.992;2023-11-21T08:00:10;9.80;99.90
19483;DHT22;9882;51.166;6.992;2023-11-21T08:02:39;9.90;99.90
19483;DHT22;9882;51.166;6.992;2023-11-21T08:05:10;9.90;99.90
19483;DHT22;9882;51.166;6.992;2023-11-21T08:07:39;9.90;99.90
19483;DHT22;9882;51.166;6.992;2023-11-21T08:10:09;9.90;99.90
19483;DHT22;9882;51.166;6.992;2023-11-21T08:12:40;9.90;99.90
19483;DHT22;9882;51.166;6.992;2023-11-21T08:15:10;9.90;99.90
19483;DHT22;9882;51.166;6.992;2023-11-21T08:17:39;9.80;99.90
19483;DHT22;9882;51.166;6.992;2023-11-21T08:20:09;9.80;99.90
19483;DHT22;9882;51.166;6.992;2023-11-21T08:22:39;9.90;99.90
19483;DHT22;9882;51.166;6.992;2023-11-21T08:25:09;9.90;99.90
19483;DHT22;9882;51.166;6.992;2023-11-21T08:27:38;9.90;99.90
19483;DHT22;9882;51.166;6.992;2023-11-21T08:30:10;9.90;99.90
19483;DHT22;9882;51.166;6.992;2023-11-21T08:32:39;9.90;99.90
19483;DHT22;9882;51.166;6.992;2023-11-21T08:35:08;10.00;99.90
19483;DHT22;9882;51.166;6.992;2023-11-21T08:37:39;9.80;99.90
19483;DHT22;9882;51.166;6.992;2023-11-21T08:40:09;9.90;99.90
19483;DHT22;9882;51.166;6.992;2023-11-21T08:42:40;9.90;99.90
19483;DHT22;9882;51.166;6.992;2023-11-21T08:45:11;10.00;99.90
19483;DHT22;9882;51.166;6.992;2023-11-21T08:47:41;9.80;99.90
19483;DHT22;9882;51.166;6.992;2023-11-21T08:50:11;9.90;99.90
19483;DHT22;9882;51.166;6.992;2023-11-21T08:52:41;10.00;99.90
19483;DHT22;9882;51.166;6.992;2023-11-21T08:55:10;9.90;99.90
19483;DHT22;9882;51.166;6.992;2023-11-21T08:57:43;10.00;99.90
19483;DHT22;9882;51.166;6.992;2023-11-21T09:00:15;10.00;99.90
19483;DHT22;9882;51.166;6.992;2023-11-21T09:02:45;9.80;99.90
19483;DHT22;9882;51.166;6.992;2023-11-21T09:05:14;9.80;99.90
19483;DHT22;9882;51.166;6.992;2023-11-21T09:07:45;9.90;99.90
19483;DHT22;9882;51.166;6.992;2023-11-21T09:10:16;10.00;99.90
19483;DHT22;9882;51.166;6.992;2023-11-21T09:12:45;9.80;99.90
19483;DHT22;9882;51.166;6.992;2023-11-21T09:15:15;9.80;99.90
19483;DHT22;9882;51.166;6.992;2023-11-21T09:17:44;9.90;99.90
19483;DHT22;9882;51.166;6.992;2023-11-21T09:20:13;9.60;99.90
19483;DHT22;9882;51.166;6.992;2023-11-21T09:22:42;9.60;99.90
19483;DHT22;9882;51.166;6.992;2023-11-21T09:25:12;9.70;99.90
19483;DHT22;9882;51.166;6.992;2023-11-21T09:27:41;9.60;99.90
19483;DHT22;9882;51.166;6.992;2023-11-21T09:30:11;9.70;99.90
19483;DHT22;9882;51.166;6.992;2023-11-21T09:32:43;9.80;99.90
19483;DHT22;9882;51.166;6.992;2023-11-21T09:35:13;9.80;99.90
19483;DHT22;9882;51.166;6.992;2023-11-21T09:37:43;9.70;99.90
19483;DHT22;9882;51.166;6.992;2023-11-21T09:40:14;9.90;99.90
19483;DHT22;9882;51.166;6.992;2023-11-21T09:42:49;10.00;99.90
19483;DHT22;9882;51.166;6.992;2023-11-21T09:45:25;10.10;99.90
19483;DHT22;9882;51.166;6.992;2023-11-21T09:47:56;10.10;99.90
19483;DHT22;9882;51.166;6.992;2023-11-21T09:50:25;10.20;99.90
19483;DHT22;9882;51.166;6.992;2023-11-21T09:52:58;10.10;99.90
19483;DHT22;9882;51.166;6.992;2023-11-21T09:55:30;10.00;99.90
19483;DHT22;9882;51.166;6.992;2023-11-21T09:58:04;9.90;99.90
19483;DHT22;9882;51.166;6.992;2023-11-21T10:00:35;10.10;99.90
19483;DHT22;9882;51.166;6.992;2023-11-21T10:03:06;10.20;99.90
19483;DHT22;9882;51.166;6.992;2023-11-21T10:05:35;10.20;99.90
19483;DHT22;9882;51.166;6.992;2023-11-21T10:08:08;10.10;99.90
19483;DHT22;9882;51.166;6.992;2023-11-21T10:10:37;10.10;99.90
19483;DHT22;9882;51.166;6.992;2023-11-21T10:13:11;10.20;99.90
19483;DHT22;9882;51.166;6.992;2023-11-21T10:15:44;10.30;99.90
19483;DHT22;9882;51.166;6.992;2023-11-21T10:18:17;10.30;99.90
19483;DHT22;9882;51.166;6.992;2023-11-21T10:20:46;10.30;99.90
19483;DHT22;9882;51.166;6.992;2023-11-21T10:23:20;10.00;99.90
19483;DHT22;9882;51.166;6.992;2023-11-21T10:25:50;10.20;99.90
19483;DHT22;9882;51.166;6.992;2023-11-21T10:28:20;10.20;99.90
19483;DHT22;9882;51.166;6.992;2023-11-21T10:30:49;10.00;99.90
19483;DHT22;9882;51.166;6.992;2023-11-21T10:33:27;9.90;99.90
19483;DHT22;9882;51.166;6.992;2023-11-21T10:35:56;10.00;99.90
19483;DHT22;9882;51.166;6.992;2023-11-21T10:38:33;10.00;99.90
19483;DHT22;9882;51.166;6.992;2023-11-21T10:41:11;10.10;99.90
19483;DHT22;9882;51.166;6.992;2023-11-21T10:43:43;10.30;99.90
19483;DHT22;9882;51.166;6.992;2023-11-21T10:46:13;10.20;99.90
19483;DHT22;9882;51.166;6.992;2023-11-21T10:48:44;10.30;99.90
19483;DHT22;9882;51.166;6.992;2023-11-21T10:51:14;9.90;99.90
19483;DHT22;9882;51.166;6.992;2023-11-21T10:53:43;10.00;99.90
19483;DHT22;9882;51.166;6.992;2023-11-21T10:56:14;10.00;99.90
19483;DHT22;9882;51.166;6.992;2023-11-21T10:58:45;10.10;99.90
19483;DHT22;9882;51.166;6.992;2023-11-21T11:01:16;10.10;99.90
19483;DHT22;9882;51.166;6.992;2023-11-21T11:03:47;10.10;99.90
19483;DHT22;9882;51.166;6.992;2023-11-21T11:06:17;10.00;99.90
19483;DHT22;9882;51.166;6.992;2023-11-21T11:08:47;10.10;99.90
19483;DHT22;9882;51.166;6.992;2023-11-21T11:11:16;10.10;99.90
19483;DHT22;9882;51.166;6.992;2023-11-21T11:13:46;10.20;99.90
19483;DHT22;9882;51.166;6.992;2023-11-21T11:16:15;10.20;99.90
19483;DHT22;9882;51.166;6.992;2023-11-21T11:18:47;10.20;99.90
19483;DHT22;9882;51.166;6.992;2023-11-21T11:21:27;10.30;99.90
19483;DHT22;9882;51.166;6.992;2023-11-21T11:24:26;10.20;99.90
19483;DHT22;9882;51.166;6.992;2023-11-21T11:27:11;10.20;99.90
19483;DHT22;9882;51.166;6.992;2023-11-21T11:32:40;10.20;99.90
19483;DHT22;9882;51.166;6.992;2023-11-21T11:35:19;10.20;99.90
19483;DHT22;9882;51.166;6.992;2023-11-21T11:37:53;10.10;99.90
19483;DHT22;9882;51.166;6.992;2023-11-21T11:40:22;10.10;99.90
19483;DHT22;9882;51.166;6.992;2023-11-21T11:42:56;10.10;99.90
19483;DHT22;9882;51.166;6.992;2023-11-21T11:45:32;10.10;99.90
19483;DHT22;9882;51.166;6.992;2023-11-21T11:48:05;10.20;99.90
19483;DHT22;9882;51.166;6.992;2023-11-21T11:50:35;10.20;99.90
19483;DHT22;9882;51.166;6.992;2023-11-21T11:53:14;10.30;99.90
19483;DHT22;9882;51.166;6.992;2023-11-21T11:55:43;10.30;99.90
19483;DHT22;9882;51.166;6.992;2023-11-21T11:58:12;10.30;99.90
19483;DHT22;9882;51.166;6.992;2023-11-21T12:00:42;10.30;99.90
19483;DHT22;9882;51.166;6.992;2023-11-21T12:03:13;10.40;99.90
19483;DHT22;9882;51.166;6.992;2023-11-21T12:05:46;10.30;99.90
19483;DHT22;9882;51.166;6.992;2023-11-21T12:08:17;10.20;99.90
19483;DHT22;9882;51.166;6.992;2023-11-21T12:10:51;10.10;99.90
19483;DHT22;9882;51.166;6.992;2023-11-21T12:13:21;10.10;99.90
19483;DHT22;9882;51.166;6.992;2023-11-21T12:15:51;10.10;99.90
19483;DHT22;9882;51.166;6.992;2023-11-21T12:18:21;10.20;99.90
19483;DHT22;9882;51.166;6.992;2023-11-21T12:20:55;10.30;99.90
19483;DHT22;9882;51.166;6.992;2023-11-21T12:23:24;10.10;99.90
19483;DHT22;9882;51.166;6.992;2023-11-21T12:25:53;10.30;99.90
19483;DHT22;9882;51.166;6.992;2023-11-21T12:28:29;10.20;99.90
19483;DHT22;9882;51.166;6.992;2023-11-21T12:31:13;10.00;99.90
19483;DHT22;9882;51.166;6.992;2023-11-21T12:33:45;10.30;99.90
19483;DHT22;9882;51.166;6.992;2023-11-21T12:36:15;10.30;99.90
19483;DHT22;9882;51.166;6.992;2023-11-21T12:38:44;10.30;99.90
19483;DHT22;9882;51.166;6.992;2023-11-21T12:41:15;10.40;99.90
19483;DHT22;9882;51.166;6.992;2023-11-21T12:43:44;10.20;99.90
19483;DHT22;9882;51.166;6.992;2023-11-21T12:46:15;10.30;99.90
19483;DHT22;9882;51.166;6.992;2023-11-21T12:48:45;10.40;99.90
19483;DHT22;9882;51.166;6.992;2023-11-21T12:51:15;10.50;99.90
19483;DHT22;9882;51.166;6.992;2023-11-21T12:53:46;10.50;99.90
19483;DHT22;9882;51.166;6.992;2023-11-21T12:56:15;10.40;99.90
19483;DHT22;9882;51.166;6.992;2023-11-21T12:58:45;10.50;99.90
19483;DHT22;9882;51.166;6.992;2023-11-21T13:01:16;10.40;99.90
19483;DHT22;9882;51.166;6.992;2023-11-21T13:03:47;10.30;99.90
19483;DHT22;9882;51.166;6.992;2023-11-21T13:06:19;10.40;99.90
19483;DHT22;9882;51.166;6.992;2023-11-21T13:08:52;10.50;99.90
19483;DHT22;9882;51.166;6.992;2023-11-21T13:11:21;10.30;99.90
19483;DHT22;9882;51.166;6.992;2023-11-21T13:13:51;10.50;99.90
19483;DHT22;9882;51.166;6.992;2023-11-21T13:16:21;10.40;99.90
19483;DHT22;9882;51.166;6.992;2023-11-21T13:18:51;10.50;99.90
19483;DHT22;9882;51.166;6.992;2023-11-21T13:21:21;10.40;99.90
19483;DHT22;9882;51.166;6.992;2023-11-21T13:23:50;10.50;99.90
19483;DHT22;9882;51.166;6.992;2023-11-21T13:26:21;10.50;99.90
19483;DHT22;9882;51.166;6.992;2023-11-21T13:28:54;10.50;99.90
19483;DHT22;9882;51.166;6.992;2023-11-21T13:31:23;10.50;99.90
19483;DHT22;9882;51.166;6.992;2023-11-21T13:33:58;10.50;99.90
19483;DHT22;9882;51.166;6.992;2023-11-21T13:36:35;10.60;99.90
19483;DHT22;9882;51.166;6.992;2023-11-21T13:39:04;10.50;99.90
19483;DHT22;9882;51.166;6.992;2023-11-21T13:41:35;10.50;99.90
19483;DHT22;9882;51.166;6.992;2023-11-21T13:44:06;10.50;99.90
19483;DHT22;9882;51.166;6.992;2023-11-21T13:46:43;10.50;99.90
19483;DHT22;9882;51.166;6.992;2023-11-21T13:49:13;10.50;99.90
19483;DHT22;9882;51.166;6.992;2023-11-21T13:51:45;10.50;99.90
19483;DHT22;9882;51.166;6.992;2023-11-21T13:54:17;10.40;99.90
19483;DHT22;9882;51.166;6.992;2023-11-21T13:56:47;10.50;99.90
19483;DHT22;9882;51.166;6.992;2023-11-21T13:59:17;10.50;99.90
19483;DHT22;9882;51.166;6.992;2023-11-21T14:01:50;10.40;99.90
19483;DHT22;9882;51.166;6.992;2023-11-21T14:04:25;10.40;99.90
19483;DHT22;9882;51.166;6.992;2023-11-21T14:07:15;10.30;99.90
19483;DHT22;9882;51.166;6.992;2023-11-21T14:10:05;10.40;99.90
19483;DHT22;9882;51.166;6.992;2023-11-21T14:12:35;10.50;99.90
19483;DHT22;9882;51.166;6.992;2023-11-21T14:15:07;10.50;99.90
19483;DHT22;9882;51.166;6.992;2023-11-21T14:17:44;10.50;99.90
19483;DHT22;9882;51.166;6.992;2023-11-21T14:20:13;10.50;99.90
19483;DHT22;9882;51.166;6.992;2023-11-21T14:22:45;10.70;99.90
19483;DHT22;9882;51.166;6.992;2023-11-21T14:25:15;10.80;99.90
19483;DHT22;9882;51.166;6.992;2023-11-21T14:27:45;10.70;99.90
19483;DHT22;9882;51.166;6.992;2023-11-21T14:30:15;10.60;99.90
19483;DHT22;9882;51.166;6.992;2023-11-21T14:32:49;10.70;99.90
19483;DHT22;9882;51.166;6.992;2023-11-21T14:35:18;10.70;99.90
19483;DHT22;9882;51.166;6.992;2023-11-21T14:37:48;10.70;99.90
19483;DHT22;9882;51.166;6.992;2023-11-21T14:40:17;10.60;99.90
19483;DHT22;9882;51.166;6.992;2023-11-21T14:42:51;10.80;99.90
19483;DHT22;9882;51.166;6.992;2023-11-21T14:45:23;10.80;99.90
19483;DHT22;9882;51.166;6.992;2023-11-21T14:47:54;10.90;99.90
19483;DHT22;9882;51.166;6.992;2023-11-21T14:50:34;10.90;99.90
19483;DHT22;9882;51.166;6.992;2023-11-21T14:53:38;10.90;99.90
19483;DHT22;9882;51.166;6.992;2023-11-21T14:56:21;10.70;99.90
19483;DHT22;9882;51.166;6.992;2023-11-21T14:58:54;10.70;99.90
19483;DHT22;9882;51.166;6.992;2023-11-21T15:01:24;10.70;99.90
19483;DHT22;9882;51.166;6.992;2023-11-21T15:04:10;10.70;99.90
19483;DHT22;9882;51.166;6.992;2023-11-21T15:06:48;10.60;99.90
19483;DHT22;9882;51.166;6.992;2023-11-21T15:09:21;10.60;99.90
19483;DHT22;9882;51.166;6.992;2023-11-21T15:12:04;10.60;99.90
19483;DHT22;9882;51.166;6.992;2023-11-21T15:14:43;10.50;99.90
19483;DHT22;9882;51.166;6.992;2023-11-21T15:17:14;10.60;99.90
19483;DHT22;9882;51.166;6.992;2023-11-21T15:19:50;10.40;99.90
19483;DHT22;9882;51.166;6.992;2023-11-21T15:22:20;10.60;99.90
19483;DHT22;9882;51.166;6.992;2023-11-21T15:24:51;10.60;99.90
19483;DHT22;9882;51.166;6.992;2023-11-21T15:27:21;10.50;99.90
19483;DHT22;9882;51.166;6.992;2023-11-21T15:29:51;10.40;99.90
19483;DHT22;9882;51.166;6.992;2023-11-21T15:32:21;10.50;99.90
19483;DHT22;9882;51.166;6.992;2023-11-21T15:34:55;10.40;99.90
19483;DHT22;9882;51.166;6.992;2023-11-21T15:37:24;10.60;99.90
19483;DHT22;9882;51.166;6.992;2023-11-21T15:39:57;10.50;99.90
19483;DHT22;9882;51.166;6.992;2023-11-21T15:42:26;10.30;99.90
19483;DHT22;9882;51.166;6.992;2023-11-21T15:44:55;10.30;99.90
19483;DHT22;9882;51.166;6.992;2023-11-21T15:47:24;10.30;99.90
19483;DHT22;9882;51.166;6.992;2023-11-21T15:49:55;10.30;99.90
19483;DHT22;9882;51.166;6.992;2023-11-21T15:52:25;10.20;99.90
19483;DHT22;9882;51.166;6.992;2023-11-21T15:54:59;10.30;99.90
19483;DHT22;9882;51.166;6.992;2023-11-21T15:57:28;10.30;99.90
19483;DHT22;9882;51.166;6.992;2023-11-21T15:59:57;10.40;99.90
19483;DHT22;9882;51.166;6.992;2023-11-21T16:02:27;10.50;99.90
19483;DHT22;9882;51.166;6.992;2023-11-21T16:04:57;10.20;99.90
19483;DHT22;9882;51.166;6.992;2023-11-21T16:07:27;10.20;99.90
19483;DHT22;9882;51.166;6.992;2023-11-21T16:09:55;10.20;99.90
19483;DHT22;9882;51.166;6.992;2023-11-21T16:12:26;10.30;99.90
19483;DHT22;9882;51.166;6.992;2023-11-21T16:14:54;10.30;99.90